Hope Airport
CYHE : now visible

Airfield :











YOU CAN JOIN US ON...

 
LOGIN :

Register | Disclaimer

   EN    FR    IT 

 









Legend :    VFR   Marginal VFR   IFR   Intensive IFR   Very Intensive IFR
Visi :
Ceiling :
>= 8 km
>= 3000ft
5 to 8 km
1000 to 3000 ft
1500m to 5 km
500 to 1000 ft
800 to 1500m
200 to 500 ft
< 800m
< 200 ft
Symbols :   Thunderstorms  Fog  Heavy snow  Heavy precipitations  Wind > 20 kt







- Airport Elevation : 128 ft
- IATA code : YHE


CYHE - Hope

CURRENT METAR :
  • 151354Z AUTO 25004KT 5SM +RA BR BKN015 BKN030 14/14 A2970 RMK SLP059 DENSITY ALT 200FT

EXPIRED METARs :
  • 151344Z AUTO 24002KT 6SM RA BR FEW009 BKN017 OVC030 14/14 A2969 RMK SLP056 DENSITY ALT 200FT
  • 151332Z AUTO VRB02KT 3SM +RA BR SCT009 SCT017 BKN028 OVC065 14/14 A2969 RMK SLP055 DENSITY ALT 200FT
  • 151327Z AUTO 28006KT 230V290 8SM +RA BKN009 BKN021 BKN032 OVC070 14/14 A2969 RMK SLP056 DENSITY ALT 200FT
  • 151308Z AUTO 00000KT 7SM -RA SCT007 BKN019 BKN036 OVC046 14/14 A2968 RMK SLP053 DENSITY ALT 200FT
  • 151256Z AUTO 12004KT 100V250 6SM -RA BR FEW024 BKN036 BKN048 OVC085 14/14 A2968 RMK PRESFR SLP051 DENSITY ALT 300FT
  • 151245Z AUTO VRB02KT 6SM +RA BR FEW005 SCT026 BKN036 OVC043 14/14 A2969 RMK SLP054 DENSITY ALT 200FT
  • 151223Z AUTO 25003KT 240V310 8SM RA BKN005 BKN025 OVC040 14/14 A2969 RMK SLP055 DENSITY ALT 200FT
  • 151100Z AUTO VRB02KT 8SM RA FEW041 OVC080 14/14 A2967 RMK SLP050 DENSITY ALT 300FT

TAF N/A
No reported NOTAMs for that airfield.



MET'MAP, your aeronautical weather chart ! - Copyright ORBIFLY December 2007 - Disclaimer

ORBIFLY MET'MAP TEAM :

Programming & Development : Alexandra Zaïnal
Concept & Development : Baudouin d'Aumeries
Co-Development & Prog : Marc-Olivier Méhu
Technical & hardware support : Manuel Goepfert

Contact : metmap@orbifly.com




SOURCES & CREDITS :

   NOAA       Earth
Advisory